createdAt,value
2023-05-31T00:00:01.039Z,95081.00
2023-05-31T00:01:01.263Z,95079.00
2023-05-31T00:02:01.133Z,95083.00
2023-05-31T00:03:01.283Z,95079.00
2023-05-31T00:04:01.298Z,95081.00
2023-05-31T00:05:01.284Z,95081.00
2023-05-31T00:06:01.378Z,95079.00
2023-05-31T00:07:01.366Z,95081.00
2023-05-31T00:08:01.396Z,95081.00
2023-05-31T00:09:01.454Z,95083.00
2023-05-31T00:10:01.513Z,95083.00
2023-05-31T00:11:01.855Z,95087.00
2023-05-31T00:12:01.635Z,95087.00
2023-05-31T00:13:01.719Z,95087.00
2023-05-31T00:14:01.737Z,95091.00
2023-05-31T00:15:01.879Z,95091.00
2023-05-31T00:16:01.888Z,95091.00
2023-05-31T00:17:20.566Z,95091.00
2023-05-31T00:18:02.945Z,95091.00
2023-05-31T00:19:01.977Z,95091.00
2023-05-31T00:20:01.927Z,95093.00
2023-05-31T00:21:02.071Z,95089.00
2023-05-31T00:22:01.951Z,95093.00
2023-05-31T00:23:01.914Z,95093.00
2023-05-31T00:24:01.904Z,95097.00
2023-05-31T00:25:01.878Z,95099.00
2023-05-31T00:26:01.852Z,95097.00
2023-05-31T00:27:01.941Z,95099.00
2023-05-31T00:28:02.084Z,95097.00
2023-05-31T00:29:02.047Z,95099.00
2023-05-31T00:30:02.106Z,95099.00
2023-05-31T00:31:02.307Z,95099.00
2023-05-31T00:32:02.226Z,95097.00
2023-05-31T00:33:02.394Z,95097.00
2023-05-31T00:34:02.404Z,95099.00
2023-05-31T00:35:02.467Z,95099.00
2023-05-31T00:36:02.451Z,95099.00
2023-05-31T00:37:02.529Z,95097.00
2023-05-31T00:38:02.695Z,95097.00
2023-05-31T00:39:02.638Z,95099.00
2023-05-31T00:40:02.729Z,95097.00
2023-05-31T00:41:02.754Z,95101.00
2023-05-31T00:42:02.799Z,95101.00
2023-05-31T00:43:02.862Z,95103.00
2023-05-31T00:44:02.917Z,95103.00
2023-05-31T00:45:03.019Z,95103.00
2023-05-31T00:46:03.098Z,95103.00
2023-05-31T00:47:03.111Z,95105.00
2023-05-31T00:48:03.224Z,95103.00
2023-05-31T00:49:03.246Z,95101.00
2023-05-31T00:50:03.264Z,95097.00
2023-05-31T00:51:03.460Z,95095.00
2023-05-31T00:52:03.452Z,95095.00
2023-05-31T00:53:03.455Z,95095.00
2023-05-31T00:54:03.567Z,95095.00
2023-05-31T00:55:03.619Z,95097.00
2023-05-31T00:56:03.668Z,95095.00
2023-05-31T00:57:03.728Z,95095.00
2023-05-31T00:58:03.795Z,95095.00
2023-05-31T00:59:03.828Z,95095.00
2023-05-31T01:00:03.872Z,95097.00
2023-05-31T01:01:04.036Z,95099.00
2023-05-31T01:02:04.057Z,95095.00
2023-05-31T01:03:04.236Z,95097.00
2023-05-31T01:04:04.470Z,95097.00
2023-05-31T01:05:04.201Z,95097.00
2023-05-31T01:06:04.230Z,95097.00
2023-05-31T01:07:04.307Z,95099.00
2023-05-31T01:08:04.371Z,95099.00
2023-05-31T01:09:04.422Z,95097.00
2023-05-31T01:10:04.480Z,95095.00
2023-05-31T01:11:04.536Z,95101.00
2023-05-31T01:12:04.595Z,95101.00
2023-05-31T01:13:04.601Z,95103.00
2023-05-31T01:14:04.666Z,95101.00
2023-05-31T01:15:04.732Z,95103.00
2023-05-31T01:16:04.818Z,95103.00
2023-05-31T01:17:04.836Z,95097.00
2023-05-31T01:18:04.985Z,95099.00
2023-05-31T01:19:04.961Z,95101.00
2023-05-31T01:20:05.320Z,95101.00
2023-05-31T01:21:05.119Z,95103.00
2023-05-31T01:22:05.129Z,95105.00
2023-05-31T01:23:05.196Z,95105.00
2023-05-31T01:24:05.221Z,95107.00
2023-05-31T01:25:05.306Z,95107.00
2023-05-31T01:26:05.380Z,95107.00
2023-05-31T01:27:05.421Z,95109.00
2023-05-31T01:28:05.450Z,95111.00
2023-05-31T01:29:05.586Z,95111.00
2023-05-31T01:30:05.612Z,95113.00
2023-05-31T01:31:05.656Z,95111.00
2023-05-31T01:32:05.760Z,95111.00
2023-05-31T01:33:05.811Z,95113.00
2023-05-31T01:34:05.915Z,95115.00
2023-05-31T01:35:05.928Z,95116.00
2023-05-31T01:36:05.943Z,95115.00
2023-05-31T01:37:06.029Z,95116.00
2023-05-31T01:38:06.107Z,95116.00
2023-05-31T01:39:06.168Z,95116.00
2023-05-31T01:40:06.239Z,95116.00
2023-05-31T01:41:06.230Z,95116.00
2023-05-31T01:42:06.370Z,95113.00
2023-05-31T01:43:06.399Z,95116.00
2023-05-31T01:44:06.419Z,95115.00
2023-05-31T01:45:06.516Z,95115.00
2023-05-31T01:46:06.597Z,95116.00
2023-05-31T01:47:06.617Z,95118.00
2023-05-31T01:48:06.740Z,95116.00
2023-05-31T01:49:06.699Z,95116.00
2023-05-31T01:50:06.818Z,95118.00
2023-05-31T01:51:06.763Z,95116.00
2023-05-31T01:52:06.819Z,95116.00
2023-05-31T01:53:06.904Z,95115.00
2023-05-31T01:54:06.939Z,95113.00
2023-05-31T01:55:06.953Z,95111.00
2023-05-31T01:56:07.004Z,95111.00
2023-05-31T01:57:07.168Z,95109.00
2023-05-31T01:58:07.113Z,95111.00
2023-05-31T01:59:07.183Z,95111.00
2023-05-31T02:00:07.239Z,95113.00
2023-05-31T02:01:07.338Z,95113.00
2023-05-31T02:02:07.375Z,95113.00
2023-05-31T02:03:07.520Z,95115.00
2023-05-31T02:04:07.465Z,95115.00
2023-05-31T02:05:07.527Z,95116.00
2023-05-31T02:06:07.598Z,95115.00
2023-05-31T02:07:07.642Z,95116.00
2023-05-31T02:08:07.736Z,95116.00
2023-05-31T02:09:07.768Z,95116.00
2023-05-31T02:10:07.787Z,95118.00
2023-05-31T02:11:07.880Z,95118.00
2023-05-31T02:12:08.003Z,95122.00
2023-05-31T02:13:08.004Z,95120.00
2023-05-31T02:14:08.050Z,95124.00
2023-05-31T02:15:08.108Z,95124.00
2023-05-31T02:16:08.189Z,95126.00
2023-05-31T02:17:08.256Z,95126.00
2023-05-31T02:18:08.296Z,95128.00
2023-05-31T02:19:08.282Z,95128.00
2023-05-31T02:20:08.317Z,95130.00
2023-05-31T02:21:08.405Z,95130.00
2023-05-31T02:22:08.419Z,95128.00
2023-05-31T02:23:08.461Z,95130.00
2023-05-31T02:24:08.523Z,95130.00
2023-05-31T02:25:08.567Z,95130.00
2023-05-31T02:26:08.588Z,95130.00
2023-05-31T02:27:08.663Z,95132.00
2023-05-31T02:28:08.681Z,95130.00
2023-05-31T02:29:08.772Z,95130.00
2023-05-31T02:30:08.784Z,95130.00
2023-05-31T02:31:08.879Z,95130.00
2023-05-31T02:32:08.893Z,95128.00
2023-05-31T02:33:08.884Z,95132.00
2023-05-31T02:34:08.965Z,95128.00
2023-05-31T02:35:09.020Z,95132.00
2023-05-31T02:36:09.048Z,95130.00
2023-05-31T02:37:09.138Z,95130.00
2023-05-31T02:38:09.132Z,95130.00
2023-05-31T02:39:09.143Z,95128.00
2023-05-31T02:40:09.224Z,95130.00
2023-05-31T02:41:09.179Z,95128.00
2023-05-31T02:42:09.211Z,95130.00
2023-05-31T02:43:09.223Z,95128.00
2023-05-31T02:44:09.230Z,95126.00
2023-05-31T02:45:09.265Z,95122.00
2023-05-31T02:46:09.360Z,95122.00
2023-05-31T02:47:09.289Z,95120.00
2023-05-31T02:48:09.321Z,95120.00
2023-05-31T02:49:09.315Z,95120.00
2023-05-31T02:50:09.374Z,95120.00
2023-05-31T02:51:09.326Z,95120.00
2023-05-31T02:52:09.308Z,95120.00
2023-05-31T02:53:09.400Z,95120.00
2023-05-31T02:54:09.382Z,95118.00
2023-05-31T02:55:09.356Z,95118.00
2023-05-31T02:56:09.433Z,95120.00
2023-05-31T02:57:09.473Z,95120.00
2023-05-31T02:58:09.476Z,95120.00
2023-05-31T02:59:09.475Z,95118.00
2023-05-31T03:00:09.565Z,95118.00
2023-05-31T03:01:09.505Z,95118.00
2023-05-31T03:02:09.683Z,95120.00
2023-05-31T03:03:09.670Z,95120.00
2023-05-31T03:04:09.589Z,95120.00
2023-05-31T03:05:09.604Z,95120.00
2023-05-31T03:06:09.626Z,95122.00
2023-05-31T03:07:09.613Z,95122.00
2023-05-31T03:08:09.609Z,95124.00
2023-05-31T03:09:09.663Z,95122.00
2023-05-31T03:10:09.673Z,95124.00
2023-05-31T03:11:09.733Z,95122.00
2023-05-31T03:12:09.743Z,95122.00
2023-05-31T03:13:09.785Z,95124.00
2023-05-31T03:14:09.800Z,95124.00
2023-05-31T03:15:09.859Z,95126.00
2023-05-31T03:16:09.903Z,95124.00
2023-05-31T03:17:09.872Z,95126.00
2023-05-31T03:18:09.891Z,95124.00
2023-05-31T03:19:09.929Z,95124.00
2023-05-31T03:20:10.339Z,95124.00
2023-05-31T03:21:09.942Z,95126.00
2023-05-31T03:22:10.031Z,95126.00
2023-05-31T03:23:10.043Z,95126.00
2023-05-31T03:24:10.045Z,95130.00
2023-05-31T03:25:10.029Z,95130.00
2023-05-31T03:26:10.041Z,95132.00
2023-05-31T03:27:10.048Z,95132.00
2023-05-31T03:28:10.101Z,95134.00
2023-05-31T03:29:10.116Z,95136.00
2023-05-31T03:30:10.174Z,95136.00
2023-05-31T03:31:10.112Z,95136.00
2023-05-31T03:32:10.139Z,95140.00
2023-05-31T03:33:10.203Z,95136.00
2023-05-31T03:34:10.209Z,95138.00
2023-05-31T03:35:10.208Z,95140.00
2023-05-31T03:36:10.260Z,95140.00
2023-05-31T03:37:10.216Z,95142.00
2023-05-31T03:38:10.239Z,95146.00
2023-05-31T03:39:10.233Z,95146.00
2023-05-31T03:40:10.297Z,95146.00
2023-05-31T03:41:10.249Z,95156.00
2023-05-31T03:42:10.265Z,95158.00
2023-05-31T03:43:10.263Z,95156.00
2023-05-31T03:44:10.275Z,95158.00
2023-05-31T03:45:10.275Z,95158.00
2023-05-31T03:46:10.362Z,95156.00
2023-05-31T03:47:10.285Z,95156.00
2023-05-31T03:48:10.375Z,95158.00
2023-05-31T03:49:10.358Z,95158.00
2023-05-31T03:50:10.416Z,95158.00
2023-05-31T03:51:10.459Z,95158.00
2023-05-31T03:52:10.538Z,95158.00
2023-05-31T03:53:10.571Z,95158.00
2023-05-31T03:54:10.645Z,95160.00
2023-05-31T03:55:10.695Z,95158.00
2023-05-31T03:56:10.765Z,95156.00
2023-05-31T03:57:10.804Z,95160.00
2023-05-31T03:58:10.877Z,95158.00
2023-05-31T03:59:10.922Z,95158.00
2023-05-31T04:00:11.008Z,95160.00
2023-05-31T04:01:11.107Z,95158.00
2023-05-31T04:02:11.247Z,95177.00
2023-05-31T04:03:11.247Z,95177.00
2023-05-31T04:04:11.435Z,95177.00
2023-05-31T04:05:11.365Z,95181.00
2023-05-31T04:06:11.356Z,95179.00
2023-05-31T04:07:11.394Z,95179.00
2023-05-31T04:08:11.459Z,95175.00
2023-05-31T04:09:11.513Z,95175.00
2023-05-31T04:10:11.536Z,95173.00
2023-05-31T04:11:11.582Z,95177.00
2023-05-31T04:12:11.715Z,95175.00
2023-05-31T04:13:11.698Z,95179.00
2023-05-31T04:14:11.701Z,95181.00
2023-05-31T04:15:11.738Z,95177.00
2023-05-31T04:16:11.862Z,95179.00
2023-05-31T04:17:11.809Z,95179.00
2023-05-31T04:18:11.885Z,95181.00
2023-05-31T04:19:11.874Z,95179.00
2023-05-31T04:20:11.932Z,95181.00
2023-05-31T04:21:11.842Z,95183.00
2023-05-31T04:22:11.893Z,95181.00
2023-05-31T04:23:11.914Z,95183.00
2023-05-31T04:24:11.981Z,95185.00
2023-05-31T04:25:12.016Z,95185.00
2023-05-31T04:26:12.042Z,95185.00
2023-05-31T04:27:12.046Z,95189.00
2023-05-31T04:28:12.108Z,95189.00
2023-05-31T04:29:12.114Z,95187.00
2023-05-31T04:30:12.161Z,95171.00
2023-05-31T04:31:12.149Z,95166.00
2023-05-31T04:32:12.223Z,95169.00
2023-05-31T04:33:12.220Z,95171.00
2023-05-31T04:34:12.249Z,95171.00
2023-05-31T04:35:12.252Z,95173.00
2023-05-31T04:36:12.249Z,95175.00
2023-05-31T04:37:12.267Z,95173.00
2023-05-31T04:38:12.320Z,95171.00
2023-05-31T04:39:12.379Z,95173.00
2023-05-31T04:40:12.435Z,95171.00
2023-05-31T04:41:12.504Z,95177.00
2023-05-31T04:42:12.560Z,95175.00
2023-05-31T04:43:12.524Z,95169.00
2023-05-31T04:44:12.509Z,95171.00
2023-05-31T04:45:12.458Z,95171.00
2023-05-31T04:46:12.572Z,95171.00
2023-05-31T04:47:12.540Z,95166.00
2023-05-31T04:48:12.554Z,95169.00
2023-05-31T04:49:12.625Z,95171.00
2023-05-31T04:50:12.666Z,95171.00
2023-05-31T04:51:12.764Z,95169.00
2023-05-31T04:52:12.734Z,95126.00
2023-05-31T04:53:12.789Z,95171.00
2023-05-31T04:54:12.856Z,95169.00
2023-05-31T04:55:12.950Z,95169.00
2023-05-31T04:56:12.907Z,95168.00
2023-05-31T04:57:12.957Z,95168.00
2023-05-31T04:58:13.028Z,95166.00
2023-05-31T04:59:13.147Z,95162.00
2023-05-31T05:00:13.087Z,95164.00
2023-05-31T05:01:13.113Z,95164.00
2023-05-31T05:02:13.094Z,95160.00
2023-05-31T05:03:13.191Z,95160.00
2023-05-31T05:04:13.161Z,95160.00
2023-05-31T05:05:13.126Z,95158.00
2023-05-31T05:06:13.180Z,95156.00
2023-05-31T05:07:13.226Z,95160.00
2023-05-31T05:08:13.302Z,95160.00
2023-05-31T05:09:13.355Z,95160.00
2023-05-31T05:10:13.368Z,95162.00
2023-05-31T05:11:13.372Z,95164.00
2023-05-31T05:12:13.364Z,95164.00
2023-05-31T05:13:13.368Z,95162.00
2023-05-31T05:14:13.381Z,95160.00
2023-05-31T05:15:13.381Z,95160.00
2023-05-31T05:16:13.392Z,95156.00
2023-05-31T05:17:13.453Z,95158.00
2023-05-31T05:18:13.470Z,95160.00
2023-05-31T05:19:13.420Z,95164.00
2023-05-31T05:20:13.574Z,95160.00
2023-05-31T05:21:13.525Z,95162.00
2023-05-31T05:22:13.597Z,95162.00
2023-05-31T05:23:13.644Z,95162.00
2023-05-31T05:24:13.670Z,95160.00
2023-05-31T05:25:13.718Z,95160.00
2023-05-31T05:26:13.767Z,95162.00
2023-05-31T05:27:13.792Z,95160.00
2023-05-31T05:28:13.800Z,95162.00
2023-05-31T05:29:13.844Z,95162.00
2023-05-31T05:30:13.931Z,95166.00
2023-05-31T05:31:13.994Z,95169.00
2023-05-31T05:32:13.969Z,95168.00
2023-05-31T05:33:13.972Z,95169.00
2023-05-31T05:34:14.028Z,95169.00
2023-05-31T05:35:14.088Z,95171.00
2023-05-31T05:36:14.097Z,95171.00
2023-05-31T05:37:14.154Z,95169.00
2023-05-31T05:38:14.213Z,95169.00
2023-05-31T05:39:14.289Z,95168.00
2023-05-31T05:40:14.302Z,95171.00
2023-05-31T05:41:14.352Z,95166.00
2023-05-31T05:42:14.384Z,95168.00
2023-05-31T05:43:14.563Z,95166.00
2023-05-31T05:44:14.518Z,95164.00
2023-05-31T05:45:14.578Z,95164.00
2023-05-31T05:46:14.747Z,95162.00
2023-05-31T05:47:14.626Z,95162.00
2023-05-31T05:48:14.724Z,95162.00
2023-05-31T05:49:14.982Z,95166.00
2023-05-31T05:50:14.822Z,95164.00
2023-05-31T05:51:14.883Z,95166.00
2023-05-31T05:52:15.096Z,95168.00
2023-05-31T05:53:14.880Z,95168.00
2023-05-31T05:54:14.864Z,95162.00
2023-05-31T05:55:14.948Z,95162.00
2023-05-31T05:56:15.025Z,95164.00
2023-05-31T05:57:14.962Z,95162.00
2023-05-31T05:58:15.030Z,95160.00
2023-05-31T05:59:15.028Z,95162.00
2023-05-31T06:00:15.024Z,95160.00
2023-05-31T06:01:15.033Z,95160.00
2023-05-31T06:02:15.559Z,95158.00
2023-05-31T06:03:15.218Z,95162.00
2023-05-31T06:04:15.168Z,95160.00
2023-05-31T06:05:15.120Z,95160.00
2023-05-31T06:06:15.221Z,95160.00
2023-05-31T06:07:15.538Z,95158.00
2023-05-31T06:08:15.203Z,95156.00
2023-05-31T06:09:15.181Z,95156.00
2023-05-31T06:10:15.200Z,95156.00
2023-05-31T06:11:15.263Z,95156.00
2023-05-31T06:12:15.221Z,95156.00
2023-05-31T06:13:15.206Z,95156.00
2023-05-31T06:14:15.295Z,95156.00
2023-05-31T06:15:15.247Z,95156.00
2023-05-31T06:16:15.347Z,95146.00
2023-05-31T06:17:15.340Z,95154.00
2023-05-31T06:18:15.330Z,95146.00
2023-05-31T06:19:15.350Z,95146.00
2023-05-31T06:20:15.442Z,95144.00
2023-05-31T06:21:15.375Z,95144.00
2023-05-31T06:22:15.378Z,95144.00
2023-05-31T06:23:15.321Z,95142.00
2023-05-31T06:24:15.354Z,95140.00
2023-05-31T06:25:15.381Z,95142.00
2023-05-31T06:26:15.376Z,95140.00
2023-05-31T06:27:15.407Z,95140.00
2023-05-31T06:28:15.414Z,95140.00
2023-05-31T06:29:15.431Z,95140.00
2023-05-31T06:30:15.420Z,95142.00
2023-05-31T06:31:15.424Z,95142.00
2023-05-31T06:32:15.468Z,95142.00
2023-05-31T06:33:15.509Z,95142.00
2023-05-31T06:34:15.465Z,95142.00
2023-05-31T06:35:15.483Z,95140.00
2023-05-31T06:36:15.476Z,95138.00
2023-05-31T06:37:15.488Z,95140.00
2023-05-31T06:38:15.489Z,95138.00
2023-05-31T06:39:15.572Z,95136.00
2023-05-31T06:40:15.572Z,95136.00
2023-05-31T06:41:15.584Z,95134.00
2023-05-31T06:42:15.581Z,95136.00
2023-05-31T06:43:15.630Z,95138.00
2023-05-31T06:44:15.659Z,95134.00
2023-05-31T06:45:15.731Z,95136.00
2023-05-31T06:46:15.713Z,95136.00
2023-05-31T06:47:15.721Z,95136.00
2023-05-31T06:48:15.676Z,95138.00
2023-05-31T06:49:15.735Z,95136.00
2023-05-31T06:50:15.747Z,95136.00
2023-05-31T06:51:15.740Z,95130.00
2023-05-31T06:52:15.707Z,95128.00
2023-05-31T06:53:15.766Z,95126.00
2023-05-31T06:54:15.743Z,95126.00
2023-05-31T06:55:15.726Z,95128.00
2023-05-31T06:56:15.779Z,95126.00
2023-05-31T06:57:15.718Z,95126.00
2023-05-31T06:58:15.791Z,95122.00
2023-05-31T06:59:15.735Z,95120.00
2023-05-31T07:00:15.793Z,95122.00
2023-05-31T07:01:15.756Z,95120.00
2023-05-31T07:02:15.755Z,95120.00
2023-05-31T07:03:15.919Z,95120.00
2023-05-31T07:04:15.785Z,95118.00
2023-05-31T07:05:15.773Z,95116.00
2023-05-31T07:06:15.800Z,95115.00
2023-05-31T07:07:15.793Z,95116.00
2023-05-31T07:08:15.823Z,95116.00
2023-05-31T07:09:15.792Z,95116.00
2023-05-31T07:10:15.811Z,95115.00
2023-05-31T07:11:15.840Z,95115.00
2023-05-31T07:12:15.807Z,95115.00
2023-05-31T07:13:15.848Z,95113.00
2023-05-31T07:14:15.902Z,95113.00
2023-05-31T07:15:15.844Z,95111.00
2023-05-31T07:16:16.043Z,95113.00
2023-05-31T07:17:15.964Z,95111.00
2023-05-31T07:18:15.964Z,95109.00
2023-05-31T07:19:15.931Z,95109.00
2023-05-31T07:20:16.046Z,95107.00
2023-05-31T07:21:15.981Z,95107.00
2023-05-31T07:22:15.995Z,95103.00
2023-05-31T07:23:16.075Z,95101.00
2023-05-31T07:24:16.112Z,95101.00
2023-05-31T07:25:16.200Z,95101.00
2023-05-31T07:26:16.235Z,95097.00
2023-05-31T07:27:16.222Z,95101.00
2023-05-31T07:28:16.310Z,95099.00
2023-05-31T07:29:16.345Z,95101.00
2023-05-31T07:30:16.448Z,95093.00
2023-05-31T07:31:16.621Z,95091.00
2023-05-31T07:32:16.534Z,95091.00
2023-05-31T07:33:21.936Z,95089.00
2023-05-31T07:34:17.546Z,95087.00
2023-05-31T07:35:16.606Z,95089.00
2023-05-31T07:36:16.542Z,95087.00
2023-05-31T07:37:16.546Z,95085.00
2023-05-31T07:38:16.575Z,95087.00
2023-05-31T07:39:16.598Z,95083.00
2023-05-31T07:40:16.545Z,95081.00
2023-05-31T07:41:16.538Z,95079.00
2023-05-31T07:42:16.522Z,95083.00
2023-05-31T07:43:16.487Z,95085.00
2023-05-31T07:44:16.476Z,95083.00
2023-05-31T07:45:16.481Z,95085.00
2023-05-31T07:46:16.526Z,95081.00
2023-05-31T07:47:16.471Z,95079.00
2023-05-31T07:48:16.510Z,95079.00
2023-05-31T07:49:16.508Z,95075.00
2023-05-31T07:50:16.476Z,95073.00
2023-05-31T07:51:16.461Z,95073.00
2023-05-31T07:52:16.492Z,95071.00
2023-05-31T07:53:16.491Z,95068.00
2023-05-31T07:54:16.466Z,95069.00
2023-05-31T07:55:16.461Z,95068.00
2023-05-31T07:56:16.484Z,95068.00
2023-05-31T07:57:16.480Z,95064.00
2023-05-31T07:58:16.524Z,95062.00
2023-05-31T07:59:16.509Z,95060.00
2023-05-31T08:00:16.684Z,95060.00
2023-05-31T08:01:16.584Z,95060.00
2023-05-31T08:02:16.654Z,95060.00
2023-05-31T08:03:16.685Z,95058.00
2023-05-31T08:04:16.637Z,95052.00
2023-05-31T08:05:16.620Z,95054.00
2023-05-31T08:06:16.600Z,95052.00
2023-05-31T08:07:16.594Z,95050.00
2023-05-31T08:08:16.610Z,95052.00
2023-05-31T08:09:16.598Z,95052.00
2023-05-31T08:10:16.756Z,95048.00
2023-05-31T08:11:16.638Z,95050.00
2023-05-31T08:12:16.931Z,95050.00
2023-05-31T08:13:16.651Z,95048.00
2023-05-31T08:14:16.635Z,95046.00
2023-05-31T08:15:16.643Z,95048.00
2023-05-31T08:16:16.659Z,95048.00
2023-05-31T08:17:16.861Z,95046.00
2023-05-31T08:18:16.720Z,95044.00
2023-05-31T08:19:16.732Z,95042.00
2023-05-31T08:20:16.749Z,95040.00
2023-05-31T08:21:16.720Z,95040.00
2023-05-31T08:22:16.740Z,95038.00
2023-05-31T08:23:16.728Z,95036.00
2023-05-31T08:24:16.724Z,95040.00
2023-05-31T08:25:16.743Z,95040.00
2023-05-31T08:26:16.788Z,95038.00
2023-05-31T08:27:16.763Z,95038.00
2023-05-31T08:28:16.749Z,95038.00
2023-05-31T08:29:16.789Z,95034.00
2023-05-31T08:30:16.843Z,95034.00
2023-05-31T08:31:16.963Z,95036.00
2023-05-31T08:32:16.915Z,95040.00
2023-05-31T08:33:17.085Z,95036.00
2023-05-31T08:34:17.030Z,95030.00
2023-05-31T08:35:17.049Z,95032.00
2023-05-31T08:36:17.123Z,95034.00
2023-05-31T08:37:17.168Z,95030.00
2023-05-31T08:38:17.247Z,95030.00
2023-05-31T08:39:17.317Z,95026.00
2023-05-31T08:40:17.368Z,95026.00
2023-05-31T08:41:17.463Z,95032.00
2023-05-31T08:42:17.446Z,95032.00
2023-05-31T08:43:17.685Z,95028.00
2023-05-31T08:44:17.514Z,95026.00
2023-05-31T08:45:17.635Z,95026.00
2023-05-31T08:46:17.654Z,95026.00
2023-05-31T08:47:17.755Z,95026.00
2023-05-31T08:48:17.724Z,95024.00
2023-05-31T08:49:17.764Z,95022.00
2023-05-31T08:50:17.759Z,95021.00
2023-05-31T08:51:17.776Z,95021.00
2023-05-31T08:52:17.831Z,95021.00
2023-05-31T08:53:17.781Z,95021.00
2023-05-31T08:54:17.828Z,95021.00
2023-05-31T08:55:17.796Z,95022.00
2023-05-31T08:56:17.849Z,95022.00
2023-05-31T08:57:17.863Z,95019.00
2023-05-31T08:58:17.870Z,95019.00
2023-05-31T08:59:17.903Z,95021.00
2023-05-31T09:00:18.016Z,95015.00
2023-05-31T09:01:18.129Z,95022.00
2023-05-31T09:02:18.085Z,95024.00
2023-05-31T09:03:18.139Z,95017.00
2023-05-31T09:04:18.202Z,95017.00
2023-05-31T09:05:18.306Z,95021.00
2023-05-31T09:06:18.413Z,95017.00
2023-05-31T09:07:18.381Z,95017.00
2023-05-31T09:08:18.442Z,95017.00
2023-05-31T09:09:18.444Z,95013.00
2023-05-31T09:10:18.463Z,95013.00
2023-05-31T09:11:18.549Z,95013.00
2023-05-31T09:12:18.530Z,95015.00
2023-05-31T09:13:18.582Z,95013.00
2023-05-31T09:14:18.607Z,95009.00
2023-05-31T09:15:18.659Z,95011.00
2023-05-31T09:16:18.725Z,95009.00
2023-05-31T09:17:18.708Z,95007.00
2023-05-31T09:18:18.677Z,95005.00
2023-05-31T09:19:18.738Z,94999.00
2023-05-31T09:20:18.817Z,95003.00
2023-05-31T09:21:18.771Z,94997.00
2023-05-31T09:22:18.781Z,94995.00
2023-05-31T09:23:18.829Z,94989.00
2023-05-31T09:24:18.825Z,94993.00
2023-05-31T09:25:18.823Z,94995.00
2023-05-31T09:26:18.841Z,94995.00
2023-05-31T09:27:18.810Z,94985.00
2023-05-31T09:28:18.822Z,94989.00
2023-05-31T09:29:18.972Z,94989.00
2023-05-31T09:30:18.934Z,94983.00
2023-05-31T09:31:19.280Z,94981.00
2023-05-31T09:32:18.876Z,94983.00
2023-05-31T09:33:18.855Z,94985.00
2023-05-31T09:34:18.895Z,94979.00
2023-05-31T09:35:18.963Z,94977.00
2023-05-31T09:36:18.979Z,94977.00
2023-05-31T09:37:19.001Z,94975.00
2023-05-31T09:38:19.562Z,94974.00
2023-05-31T09:39:19.080Z,94970.00
2023-05-31T09:40:19.173Z,94979.00
2023-05-31T09:41:19.169Z,94974.00
2023-05-31T09:42:19.191Z,94972.00
2023-05-31T09:43:19.219Z,94972.00
2023-05-31T09:44:19.218Z,94964.00
2023-05-31T09:45:19.266Z,94960.00
2023-05-31T09:46:19.361Z,94968.00
2023-05-31T09:47:19.313Z,94958.00
2023-05-31T09:48:19.362Z,94958.00
2023-05-31T09:49:19.359Z,94956.00
2023-05-31T09:50:19.404Z,94956.00
2023-05-31T09:51:19.434Z,94958.00
2023-05-31T09:52:19.340Z,94952.00
2023-05-31T09:53:19.445Z,94954.00
2023-05-31T09:54:19.378Z,94956.00
2023-05-31T09:55:19.329Z,94952.00
2023-05-31T09:56:19.345Z,94950.00
2023-05-31T09:57:19.404Z,94946.00
2023-05-31T09:58:19.357Z,94952.00
2023-05-31T09:59:19.408Z,94942.00
2023-05-31T10:00:19.442Z,94940.00
2023-05-31T10:01:19.495Z,94938.00
2023-05-31T10:02:19.514Z,94936.00
2023-05-31T10:03:19.493Z,94940.00
2023-05-31T10:04:19.535Z,94942.00
2023-05-31T10:05:19.546Z,94938.00
2023-05-31T10:06:19.509Z,94932.00
2023-05-31T10:07:19.542Z,94938.00
2023-05-31T10:08:19.555Z,94928.00
2023-05-31T10:09:19.562Z,94926.00
2023-05-31T10:10:19.570Z,94926.00
2023-05-31T10:11:19.637Z,94930.00
2023-05-31T10:12:19.618Z,94922.00
2023-05-31T10:13:19.707Z,94924.00
2023-05-31T10:14:19.719Z,94922.00
2023-05-31T10:15:19.756Z,94917.00
2023-05-31T10:16:19.983Z,94926.00
2023-05-31T10:17:19.819Z,94922.00
2023-05-31T10:18:19.941Z,94924.00
2023-05-31T10:19:19.978Z,94920.00
2023-05-31T10:20:20.078Z,94919.00
2023-05-31T10:21:20.100Z,94920.00
2023-05-31T10:22:20.107Z,94915.00
2023-05-31T10:23:20.190Z,94915.00
2023-05-31T10:24:20.190Z,94915.00
2023-05-31T10:25:20.189Z,94911.00
2023-05-31T10:26:20.213Z,94909.00
2023-05-31T10:27:20.214Z,94911.00
2023-05-31T10:28:20.270Z,94913.00
2023-05-31T10:29:20.301Z,94909.00
2023-05-31T10:30:20.304Z,94909.00
2023-05-31T10:31:20.414Z,94909.00
2023-05-31T10:32:20.315Z,94901.00
2023-05-31T10:33:20.374Z,94922.00
2023-05-31T10:34:20.418Z,94920.00
2023-05-31T10:35:20.472Z,94919.00
2023-05-31T10:36:20.550Z,94917.00
2023-05-31T10:37:20.565Z,94917.00
2023-05-31T10:38:20.589Z,94913.00
2023-05-31T10:39:20.603Z,94887.00
2023-05-31T10:40:20.672Z,94883.00
2023-05-31T10:41:25.800Z,94879.00
2023-05-31T10:42:21.652Z,94879.00
2023-05-31T10:43:20.634Z,94879.00
2023-05-31T10:44:20.634Z,94874.00
2023-05-31T10:45:20.638Z,94879.00
2023-05-31T10:46:20.714Z,94875.00
2023-05-31T10:47:20.607Z,94875.00
2023-05-31T10:48:20.573Z,94874.00
2023-05-31T10:49:20.640Z,94870.00
2023-05-31T10:50:20.616Z,94870.00
2023-05-31T10:51:20.612Z,94870.00
2023-05-31T10:52:20.584Z,94866.00
2023-05-31T10:53:20.606Z,94862.00
2023-05-31T10:54:20.570Z,94862.00
2023-05-31T10:55:20.576Z,94858.00
2023-05-31T10:56:20.539Z,94858.00
2023-05-31T10:57:20.546Z,94858.00
2023-05-31T10:58:20.522Z,94852.00
2023-05-31T10:59:20.529Z,94852.00
2023-05-31T11:00:20.515Z,94858.00
2023-05-31T11:01:20.584Z,94856.00
2023-05-31T11:02:20.560Z,94854.00
2023-05-31T11:03:20.803Z,94850.00
2023-05-31T11:04:20.780Z,94852.00
2023-05-31T11:05:20.750Z,94850.00
2023-05-31T11:06:20.781Z,94850.00
2023-05-31T11:07:20.866Z,94846.00
2023-05-31T11:08:20.926Z,94846.00
2023-05-31T11:09:20.977Z,94844.00
2023-05-31T11:10:21.011Z,94846.00
2023-05-31T11:11:21.100Z,94844.00
2023-05-31T11:12:21.136Z,94842.00
2023-05-31T11:13:23.202Z,94842.00
2023-05-31T11:14:21.216Z,94840.00
2023-05-31T11:15:21.230Z,94842.00
2023-05-31T11:16:21.241Z,94838.00
2023-05-31T11:17:21.240Z,94840.00
2023-05-31T11:18:21.140Z,94838.00
2023-05-31T11:19:21.134Z,94840.00
2023-05-31T11:20:21.197Z,94840.00
2023-05-31T11:21:21.205Z,94838.00
2023-05-31T11:22:21.138Z,94836.00
2023-05-31T11:23:21.154Z,94832.00
2023-05-31T11:24:21.105Z,94830.00
2023-05-31T11:25:23.307Z,94832.00
2023-05-31T11:26:21.165Z,94832.00
2023-05-31T11:27:21.093Z,94828.00
2023-05-31T11:28:21.100Z,94832.00
2023-05-31T11:29:21.107Z,94830.00
2023-05-31T11:30:21.126Z,94827.00
2023-05-31T11:31:22.778Z,94830.00
2023-05-31T11:32:21.062Z,94828.00
2023-05-31T11:33:21.069Z,94827.00
2023-05-31T11:34:21.140Z,94825.00
2023-05-31T11:35:21.086Z,94823.00
2023-05-31T11:36:21.163Z,94823.00
2023-05-31T11:37:23.910Z,94823.00
2023-05-31T11:38:21.120Z,94825.00
2023-05-31T11:39:21.112Z,94825.00
2023-05-31T11:40:21.120Z,94823.00
2023-05-31T11:41:21.096Z,94821.00
2023-05-31T11:42:21.084Z,94825.00
2023-05-31T11:43:21.145Z,94823.00
2023-05-31T11:44:21.088Z,94819.00